Time;durP1;ratioP1;P1;durP2;ratioP2;P2;SDS_P1;SDS_P2;PMS_P1;PMS_P2;Temp;Humidity;BMP_temperature;BMP_pressure;BME280_temperature;BME280_humidity;BME280_pressure;Samples;Min_cycle;Max_cycle;Signal;HPM_P1;HPM_P2
2023/08/08 00:00:35;;;;;;;17.58;5.15;;;;;;;12.40;100.00;101323.84;5061556;28;20112;-66
2023/08/08 00:03:01;;;;;;;16.08;4.90;;;;;;;12.33;100.00;101316.72;5063938;28;20476;-66
2023/08/08 00:05:26;;;;;;;16.85;5.00;;;;;;;12.29;100.00;101322.88;5062548;28;20368;-66
2023/08/08 00:07:51;;;;;;;16.42;4.90;;;;;;;12.31;100.00;101319.38;5063226;28;20052;-66
2023/08/08 00:10:17;;;;;;;16.10;5.00;;;;;;;12.35;100.00;101320.28;5063647;28;20115;-66
2023/08/08 00:12:42;;;;;;;15.60;4.85;;;;;;;12.34;100.00;101323.81;5061844;28;20060;-66
2023/08/08 00:15:08;;;;;;;15.88;5.00;;;;;;;12.27;100.00;101322.00;5064783;28;20422;-66
2023/08/08 00:17:34;;;;;;;16.17;4.90;;;;;;;12.26;100.00;101321.13;5057350;28;20091;-67
2023/08/08 00:19:59;;;;;;;17.77;4.97;;;;;;;12.31;100.00;101318.50;5064097;28;20024;-70
2023/08/08 00:22:25;;;;;;;16.55;5.00;;;;;;;12.37;100.00;101331.78;5062291;28;20486;-68
2023/08/08 00:24:50;;;;;;;15.82;4.80;;;;;;;12.45;100.00;101327.41;5062825;28;20451;-66
2023/08/08 00:27:16;;;;;;;14.93;4.70;;;;;;;12.47;100.00;101322.97;5063601;28;20089;-69
2023/08/08 00:29:41;;;;;;;16.55;5.00;;;;;;;12.53;100.00;101320.34;5061188;28;20060;-67
2023/08/08 00:32:06;;;;;;;17.13;4.63;;;;;;;12.57;100.00;101321.25;5064647;28;20032;-72
2023/08/08 00:34:32;;;;;;;16.10;4.90;;;;;;;12.60;100.00;101331.88;5061201;28;20104;-71
2023/08/08 00:36:57;;;;;;;16.77;4.75;;;;;;;12.59;100.00;101315.97;5063526;28;20039;-75
2023/08/08 00:39:22;;;;;;;18.65;4.60;;;;;;;12.56;100.00;101311.53;5062894;28;20037;-67
2023/08/08 00:41:48;;;;;;;16.48;4.53;;;;;;;12.61;100.00;101314.19;5062090;28;20025;-72
2023/08/08 00:44:13;;;;;;;14.82;4.40;;;;;;;12.61;100.00;101308.88;5063648;28;20043;-67
2023/08/08 00:46:39;;;;;;;16.70;4.95;;;;;;;12.66;100.00;101309.81;5061155;28;20040;-73
2023/08/08 00:49:04;;;;;;;16.45;4.28;;;;;;;12.71;100.00;101308.03;5057085;28;20037;-78
2023/08/08 00:51:30;;;;;;;15.98;4.40;;;;;;;12.73;100.00;101306.28;5063905;28;20028;-79
2023/08/08 00:53:56;;;;;;;16.52;4.68;;;;;;;12.73;100.00;101299.19;5060677;28;20032;-83
2023/08/08 00:56:22;;;;;;;14.43;4.68;;;;;;;12.75;100.00;101300.97;5062563;28;20032;-67
2023/08/08 00:58:50;;;;;;;16.58;4.53;;;;;;;12.76;100.00;101300.09;5063211;28;20029;-73
2023/08/08 01:01:16;;;;;;;14.18;4.40;;;;;;;12.71;100.00;101302.72;5061583;28;20029;-76
2023/08/08 01:03:42;;;;;;;16.05;4.57;;;;;;;12.72;100.00;101307.16;5063760;28;20066;-83
2023/08/08 01:06:22;;;;;;;15.90;4.60;;;;;;;12.75;100.00;101299.19;5060841;28;20114;-70
2023/08/08 01:09:17;;;;;;;15.30;5.10;;;;;;;12.81;100.00;101312.47;5059757;28;20522;-68
2023/08/08 01:11:48;;;;;;;15.07;4.68;;;;;;;12.81;100.00;101312.47;5058520;28;20029;-67
2023/08/08 01:14:15;;;;;;;19.00;5.25;;;;;;;12.83;100.00;101304.53;5063612;28;20025;-72
2023/08/08 01:16:41;;;;;;;16.25;4.88;;;;;;;12.84;100.00;101307.22;5063579;28;20033;-69
2023/08/08 01:19:11;;;;;;;18.60;4.80;;;;;;;12.86;100.00;101300.13;5068141;28;20501;-75
2023/08/08 01:21:40;;;;;;;17.75;4.85;;;;;;;12.88;100.00;101302.78;5060935;28;20028;-72
2023/08/08 01:24:34;;;;;;;17.02;5.20;;;;;;;12.85;100.00;101293.03;5067819;28;20036;-71
2023/08/08 01:27:00;;;;;;;15.45;4.65;;;;;;;12.82;100.00;101295.69;5066666;28;20039;-70
2023/08/08 01:29:27;;;;;;;19.83;4.85;;;;;;;12.84;100.00;101296.59;5065313;28;20036;-70
2023/08/08 01:31:53;;;;;;;17.83;5.38;;;;;;;12.89;100.00;101305.44;5066358;28;20112;-67
2023/08/08 01:34:19;;;;;;;17.55;5.10;;;;;;;12.92;100.00;101301.91;5066645;28;20107;-66
2023/08/08 01:36:56;;;;;;;16.50;5.10;;;;;;;12.92;100.00;101301.91;5064815;28;20094;-67
2023/08/08 01:39:25;;;;;;;19.05;5.28;;;;;;;12.93;100.00;101305.44;5066048;28;20028;-66
2023/08/08 01:41:53;;;;;;;18.63;5.10;;;;;;;12.93;100.00;101297.47;5065791;28;20021;-67
2023/08/08 01:44:20;;;;;;;16.33;4.90;;;;;;;12.93;100.00;101294.81;5066233;28;20024;-66
2023/08/08 01:46:45;;;;;;;17.23;5.43;;;;;;;12.94;100.00;101291.28;5064833;28;20051;-66
2023/08/08 01:49:10;;;;;;;16.02;4.72;;;;;;;12.91;100.00;101289.50;5067404;28;20449;-69
2023/08/08 01:51:36;;;;;;;17.40;4.80;;;;;;;12.89;100.00;101291.28;5063951;28;20029;-66
2023/08/08 01:54:01;;;;;;;16.25;4.80;;;;;;;12.84;100.00;101283.31;5066883;28;20028;-66
2023/08/08 01:56:27;;;;;;;18.08;5.03;;;;;;;12.83;100.00;101283.28;5063873;28;20036;-69
2023/08/08 01:58:52;;;;;;;17.50;5.13;;;;;;;12.81;100.00;101275.34;5065556;28;20055;-67
2023/08/08 02:01:17;;;;;;;17.15;4.85;;;;;;;12.78;100.00;101283.28;5066052;28;20035;-66
2023/08/08 02:03:43;;;;;;;17.60;4.75;;;;;;;12.71;100.00;101273.53;5064381;28;20031;-66
2023/08/08 02:06:08;;;;;;;18.73;5.43;;;;;;;12.63;100.00;101272.66;5067137;28;20070;-66
2023/08/08 02:08:33;;;;;;;16.10;5.03;;;;;;;12.54;100.00;101274.41;5064114;28;20066;-68
2023/08/08 02:10:59;;;;;;;17.48;5.00;;;;;;;12.49;100.00;101275.25;5065058;28;20041;-67
2023/08/08 02:13:24;;;;;;;19.55;5.10;;;;;;;12.40;100.00;101272.59;5065033;28;20033;-66
2023/08/08 02:15:49;;;;;;;19.17;5.43;;;;;;;12.35;100.00;101281.41;5064952;28;20032;-69
2023/08/08 02:18:15;;;;;;;17.90;4.97;;;;;;;12.40;100.00;101291.16;5066247;28;20499;-66
2023/08/08 02:20:40;;;;;;;19.60;5.40;;;;;;;12.36;100.00;101276.97;5063396;28;20472;-66
2023/08/08 02:23:05;;;;;;;18.63;5.15;;;;;;;12.37;100.00;101278.75;5067127;28;20567;-66
2023/08/08 02:25:31;;;;;;;17.15;5.00;;;;;;;12.37;100.00;101276.97;5063650;28;20487;-66
2023/08/08 02:27:57;;;;;;;20.67;5.40;;;;;;;12.37;100.00;101270.81;5064882;28;20029;-69
2023/08/08 02:30:22;;;;;;;18.95;5.20;;;;;;;12.35;100.00;101273.44;5065298;28;20391;-67
2023/08/08 02:32:48;;;;;;;18.52;5.50;;;;;;;12.34;100.00;101274.31;5064215;28;20025;-74
2023/08/08 02:35:13;;;;;;;20.10;5.88;;;;;;;12.37;100.00;101265.50;5066163;28;20060;-66
2023/08/08 02:37:38;;;;;;;20.02;6.30;;;;;;;12.38;100.00;101262.84;5063267;28;20472;-66
2023/08/08 02:40:05;;;;;;;19.25;5.90;;;;;;;12.38;100.00;101261.97;5065118;28;20036;-66
2023/08/08 02:42:30;;;;;;;19.73;5.88;;;;;;;12.40;100.00;101269.94;5063933;28;20029;-66
2023/08/08 02:44:56;;;;;;;20.73;5.82;;;;;;;12.34;100.00;101263.72;5065295;28;20384;-69
2023/08/08 02:47:21;;;;;;;20.42;5.80;;;;;;;12.30;100.00;101256.63;5064897;28;20099;-67
2023/08/08 02:49:46;;;;;;;20.67;6.10;;;;;;;12.28;100.00;101245.16;5063827;28;20106;-66
2023/08/08 02:52:12;;;;;;;19.88;6.00;;;;;;;12.25;100.00;101253.09;5066044;28;20025;-77
2023/08/08 02:54:37;;;;;;;22.02;6.32;;;;;;;12.26;100.00;101246.00;5063126;28;20033;-67
2023/08/08 02:57:03;;;;;;;20.88;6.22;;;;;;;12.28;100.00;101246.91;5065950;28;20074;-73
2023/08/08 02:59:29;;;;;;;21.40;6.45;;;;;;;12.24;100.00;101245.13;5063632;28;20078;-66
2023/08/08 03:01:54;;;;;;;21.33;6.30;;;;;;;12.25;100.00;101255.75;5064816;28;20029;-67
2023/08/08 03:04:19;;;;;;;20.40;6.20;;;;;;;12.24;100.00;101251.31;5064923;28;20111;-81
2023/08/08 03:06:45;;;;;;;20.95;6.50;;;;;;;12.20;100.00;101253.06;5063280;28;20040;-66
2023/08/08 03:09:10;;;;;;;22.33;6.90;;;;;;;12.16;100.00;101263.66;5065984;28;20597;-82
2023/08/08 03:11:37;;;;;;;21.08;6.70;;;;;;;12.12;100.00;101260.09;5058616;28;20036;-66
2023/08/08 03:14:02;;;;;;;21.90;7.07;;;;;;;12.16;100.00;101255.72;5065702;28;20036;-69
2023/08/08 03:16:28;;;;;;;22.75;7.20;;;;;;;12.19;100.00;101261.91;5062034;28;20017;-67
2023/08/08 03:18:53;;;;;;;21.58;7.07;;;;;;;12.25;100.00;101265.47;5064513;28;20040;-75
2023/08/08 03:21:18;;;;;;;24.27;7.55;;;;;;;12.29;100.00;101251.31;5064611;28;20039;-79
2023/08/08 03:23:44;;;;;;;22.17;8.00;;;;;;;12.32;100.00;101253.97;5062605;28;20447;-75
2023/08/08 03:26:09;;;;;;;23.23;7.60;;;;;;;12.36;100.00;101243.41;5065720;28;20513;-72
2023/08/08 03:28:35;;;;;;;23.27;7.35;;;;;;;12.36;100.00;101245.16;5062059;28;20037;-79
2023/08/08 03:31:02;;;;;;;23.17;7.43;;;;;;;12.40;100.00;101246.94;5064847;28;20036;-66
2023/08/08 03:33:27;;;;;;;23.67;7.90;;;;;;;12.41;100.00;101239.88;5063157;28;20029;-76
2023/08/08 03:35:52;;;;;;;22.40;7.60;;;;;;;12.41;100.00;101246.06;5063587;28;20453;-73
2023/08/08 03:38:18;;;;;;;21.10;7.40;;;;;;;12.41;100.00;101256.69;5063707;28;20040;-75
2023/08/08 03:40:43;;;;;;;22.58;7.78;;;;;;;12.44;100.00;101248.72;5062178;28;20025;-67
2023/08/08 03:43:08;;;;;;;23.95;7.82;;;;;;;12.41;100.00;101247.81;5065270;28;20036;-71
2023/08/08 03:45:34;;;;;;;22.80;8.15;;;;;;;12.35;100.00;101246.94;5062304;28;20029;-68
2023/08/08 03:47:59;;;;;;;23.05;7.72;;;;;;;12.26;100.00;101240.72;5064110;28;20522;-68
2023/08/08 03:50:24;;;;;;;23.80;8.00;;;;;;;12.19;100.00;101245.13;5063184;28;20056;-76
2023/08/08 03:52:50;;;;;;;25.15;8.50;;;;;;;12.11;100.00;101253.00;5063051;28;20025;-76
2023/08/08 03:55:15;;;;;;;23.58;8.50;;;;;;;12.06;100.00;101249.47;5063229;28;20054;-82
2023/08/08 03:57:42;;;;;;;23.92;8.98;;;;;;;12.02;100.00;101247.69;5061676;28;20459;-66
2023/08/08 04:00:08;;;;;;;22.70;8.23;;;;;;;11.96;100.00;101247.66;5065125;28;20102;-76
2023/08/08 04:02:33;;;;;;;24.10;9.30;;;;;;;11.93;100.00;101251.16;5061901;28;20033;-67
2023/08/08 04:04:59;;;;;;;23.75;8.63;;;;;;;11.91;100.00;101246.69;5063855;28;20025;-77
2023/08/08 04:07:24;;;;;;;23.38;8.90;;;;;;;11.85;100.00;101243.16;5063257;28;20526;-66
2023/08/08 04:09:49;;;;;;;22.55;8.75;;;;;;;11.83;100.00;101244.03;5062381;28;20388;-66
2023/08/08 04:12:15;;;;;;;24.00;8.80;;;;;;;11.81;100.00;101243.09;5064427;28;20119;-67
2023/08/08 04:14:40;;;;;;;25.40;8.98;;;;;;;11.79;100.00;101244.88;5061302;28;20055;-70
2023/08/08 04:17:05;;;;;;;22.88;8.80;;;;;;;11.77;100.00;101251.94;5064619;28;20085;-67
2023/08/08 04:19:31;;;;;;;25.08;9.23;;;;;;;11.75;100.00;101246.63;5062123;28;20116;-66
2023/08/08 04:21:56;;;;;;;26.35;9.40;;;;;;;11.71;100.00;101251.88;5063311;28;20030;-66
2023/08/08 04:24:21;;;;;;;24.65;9.73;;;;;;;11.69;100.00;101252.78;5063051;28;20428;-66
2023/08/08 04:26:47;;;;;;;24.00;9.50;;;;;;;11.68;100.00;101250.13;5061966;28;20503;-66
2023/08/08 04:29:12;;;;;;;26.42;9.80;;;;;;;11.64;100.00;101253.63;5064279;28;20032;-66
2023/08/08 04:31:37;;;;;;;27.23;10.20;;;;;;;11.65;100.00;101258.94;5061293;28;20111;-66
2023/08/08 04:34:03;;;;;;;24.67;9.63;;;;;;;11.68;100.00;101252.78;5062850;28;20062;-66
2023/08/08 04:36:28;;;;;;;25.33;9.60;;;;;;;11.72;100.00;101251.00;5062197;28;20033;-66
2023/08/08 04:38:54;;;;;;;25.58;9.82;;;;;;;11.74;100.00;101243.97;5062872;28;20464;-66
2023/08/08 04:41:19;;;;;;;25.08;9.60;;;;;;;11.75;100.00;101267.81;5063550;28;20028;-66
2023/08/08 04:43:45;;;;;;;23.95;9.77;;;;;;;11.78;100.00;101257.25;5061298;28;20021;-66
2023/08/08 04:46:10;;;;;;;24.45;9.63;;;;;;;11.79;100.00;101259.00;5064487;28;20033;-68
2023/08/08 04:48:37;;;;;;;25.60;9.85;;;;;;;11.83;100.00;101258.16;5060938;28;20033;-66
2023/08/08 04:51:04;;;;;;;25.40;9.45;;;;;;;11.78;100.00;101269.59;5063286;28;20078;-66
2023/08/08 04:53:30;;;;;;;25.08;9.80;;;;;;;11.78;100.00;101254.59;5061862;28;20029;-67
2023/08/08 04:55:55;;;;;;;24.27;9.20;;;;;;;11.74;100.00;101258.09;5062574;28;20494;-66
2023/08/08 04:58:20;;;;;;;24.55;9.32;;;;;;;11.75;100.00;101261.63;5062933;28;20078;-66
2023/08/08 05:00:46;;;;;;;24.55;9.50;;;;;;;11.74;100.00;101254.56;5061572;28;20033;-66
2023/08/08 05:03:11;;;;;;;24.70;9.57;;;;;;;11.73;100.00;101263.38;5064161;28;20028;-66
2023/08/08 05:05:37;;;;;;;25.63;9.73;;;;;;;11.71;100.00;101250.13;5056671;28;20024;-68
2023/08/08 05:08:02;;;;;;;25.77;9.82;;;;;;;11.68;100.00;101255.41;5063668;28;20028;-67
2023/08/08 05:10:28;;;;;;;27.27;10.90;;;;;;;11.69;100.00;101254.53;5061809;28;20462;-67
2023/08/08 05:12:53;;;;;;;24.38;9.43;;;;;;;11.71;100.00;101252.78;5062261;28;20029;-66
2023/08/08 05:15:19;;;;;;;25.95;9.70;;;;;;;11.75;100.00;101257.22;5063275;28;20426;-66
2023/08/08 05:17:44;;;;;;;26.17;9.98;;;;;;;11.78;100.00;101253.69;5060903;28;20032;-75
2023/08/08 05:20:10;;;;;;;26.08;9.82;;;;;;;11.79;100.00;101255.47;5064032;28;20028;-66
2023/08/08 05:22:36;;;;;;;25.25;9.70;;;;;;;11.83;100.00;101244.91;5060767;28;20385;-66
2023/08/08 05:25:01;;;;;;;24.85;9.52;;;;;;;11.85;100.00;101244.91;5062844;28;20051;-66
2023/08/08 05:27:26;;;;;;;25.52;9.60;;;;;;;11.86;100.00;101249.34;5062010;28;20056;-66
2023/08/08 05:29:52;;;;;;;24.77;9.45;;;;;;;11.88;100.00;101255.50;5061594;28;20032;-75
2023/08/08 05:32:17;;;;;;;25.25;9.57;;;;;;;11.92;100.00;101257.31;5063095;28;20068;-66
2023/08/08 05:34:42;;;;;;;23.70;9.68;;;;;;;11.97;100.00;101265.31;5060593;28;20029;-66
2023/08/08 05:37:08;;;;;;;24.42;9.60;;;;;;;12.03;100.00;101260.06;5063927;28;20436;-75
2023/08/08 05:39:33;;;;;;;24.92;9.57;;;;;;;12.08;100.00;101263.59;5060842;28;20471;-66
2023/08/08 05:41:58;;;;;;;24.73;10.10;;;;;;;12.15;100.00;101264.53;5062995;28;20029;-66
2023/08/08 05:44:24;;;;;;;23.85;9.70;;;;;;;12.24;100.00;101264.56;5062177;28;20036;-66
2023/08/08 05:46:49;;;;;;;28.20;10.05;;;;;;;12.32;100.00;101252.22;5061240;28;20056;-67
2023/08/08 05:49:15;;;;;;;24.40;9.60;;;;;;;12.39;100.00;101263.72;5063567;28;20066;-66
2023/08/08 05:51:40;;;;;;;24.90;9.20;;;;;;;12.41;100.00;101256.69;5060314;28;20040;-66
2023/08/08 05:54:05;;;;;;;27.17;9.93;;;;;;;12.45;100.00;101253.16;5063304;28;20028;-67
2023/08/08 05:56:37;;;;;;;27.63;10.23;;;;;;;12.49;100.00;101254.91;5061303;28;20028;-82
2023/08/08 05:59:03;;;;;;;25.60;9.60;;;;;;;12.53;100.00;101261.13;5062997;28;20157;-81
2023/08/08 06:01:30;;;;;;;24.95;9.75;;;;;;;12.54;100.00;101253.19;5062187;28;20034;-68
2023/08/08 06:03:55;;;;;;;24.08;9.38;;;;;;;12.59;100.00;101262.91;5065942;28;20277;-71
2023/08/08 06:06:21;;;;;;;25.83;9.50;;;;;;;12.66;100.00;101264.72;5065884;28;20425;-75
2023/08/08 06:08:46;;;;;;;24.08;9.27;;;;;;;12.71;100.00;101254.97;5064276;28;20033;-82
2023/08/08 06:11:12;;;;;;;24.77;9.50;;;;;;;12.76;100.00;101257.66;5067198;28;20395;-68
2023/08/08 06:13:37;;;;;;;24.00;9.20;;;;;;;12.84;100.00;101255.88;5063566;28;20029;-82
2023/08/08 06:16:06;;;;;;;26.35;9.52;;;;;;;12.96;100.00;101249.72;5066710;28;20094;-67
2023/08/08 06:18:32;;;;;;;25.10;9.20;;;;;;;13.10;100.00;101255.91;5064646;28;20105;-66
2023/08/08 06:20:57;;;;;;;25.30;8.60;;;;;;;13.20;100.00;101256.81;5065546;28;20037;-70
2023/08/08 06:23:23;;;;;;;23.15;8.43;;;;;;;13.22;100.00;101260.34;5065441;28;20040;-67
2023/08/08 06:25:48;;;;;;;23.60;9.02;;;;;;;13.22;100.00;101255.03;5064075;28;20495;-82
2023/08/08 06:28:13;;;;;;;25.33;8.98;;;;;;;13.22;100.00;101266.56;5066526;28;20033;-79
2023/08/08 06:30:39;;;;;;;23.33;8.73;;;;;;;13.25;100.00;101268.31;5063276;28;20029;-73
2023/08/08 06:33:04;;;;;;;23.40;9.00;;;;;;;13.25;100.00;101276.25;5066179;28;20027;-82
2023/08/08 06:35:30;;;;;;;23.08;8.57;;;;;;;13.32;100.00;101269.19;5064137;28;20459;-79
2023/08/08 06:37:55;;;;;;;22.95;9.05;;;;;;;13.33;100.00;101266.53;5065115;28;20128;-82
2023/08/08 06:40:21;;;;;;;23.98;8.85;;;;;;;13.35;100.00;101264.81;5065371;28;20471;-66
2023/08/08 06:42:46;;;;;;;23.17;9.35;;;;;;;13.39;100.00;101265.69;5063446;28;20024;-67
2023/08/08 06:45:12;;;;;;;23.13;8.90;;;;;;;13.51;100.00;101264.78;5066687;28;20024;-68
2023/08/08 06:47:37;;;;;;;24.38;9.07;;;;;;;13.59;100.00;101258.56;5063060;28;20040;-67
2023/08/08 06:50:03;;;;;;;23.90;9.38;;;;;;;13.71;100.00;101259.44;5065695;28;20124;-66
2023/08/08 06:52:28;;;;;;;25.17;8.93;;;;;;;13.85;100.00;101255.00;5064327;28;20038;-67
2023/08/08 06:54:54;;;;;;;23.23;8.57;;;;;;;13.92;100.00;101253.19;5064225;28;20356;-66
2023/08/08 06:57:19;;;;;;;23.38;8.38;;;;;;;13.98;100.00;101253.19;5065394;28;20036;-73
2023/08/08 06:59:46;;;;;;;22.65;8.07;;;;;;;14.07;100.00;101257.59;5063114;28;20025;-66
2023/08/08 07:02:11;;;;;;;21.20;8.05;;;;;;;14.13;100.00;101255.78;5066056;28;20035;-75
2023/08/08 07:04:37;;;;;;;22.95;8.30;;;;;;;14.22;100.00;101257.50;5062929;28;20025;-67
2023/08/08 07:07:02;;;;;;;20.23;7.65;;;;;;;14.33;100.00;101261.91;5065153;28;20032;-66
2023/08/08 07:09:28;;;;;;;21.70;7.57;;;;;;;14.41;100.00;101246.78;5063879;28;20078;-66
2023/08/08 07:11:53;;;;;;;22.50;7.40;;;;;;;14.49;100.00;101250.31;5064113;28;20021;-66
2023/08/08 07:14:19;;;;;;;21.63;7.07;;;;;;;14.54;100.00;101253.81;5064942;28;20483;-67
2023/08/08 07:16:44;;;;;;;20.75;7.80;;;;;;;14.62;100.00;101252.03;5062537;28;20399;-66
2023/08/08 07:19:11;;;;;;;22.35;8.15;;;;;;;14.82;100.00;101253.66;5065931;28;20033;-68
2023/08/08 07:21:37;;;;;;;22.08;6.95;;;;;;;15.10;100.00;101251.72;5062699;28;20426;-67
2023/08/08 07:24:03;;;;;;;20.95;7.10;;;;;;;15.21;100.00;101243.63;5064816;28;20035;-66
2023/08/08 07:26:28;;;;;;;20.65;6.57;;;;;;;15.24;100.00;101254.25;5063458;28;20106;-68
2023/08/08 07:28:53;;;;;;;21.55;6.50;;;;;;;15.28;100.00;101258.66;5062433;28;20106;-66
2023/08/08 07:31:19;;;;;;;19.85;6.10;;;;;;;15.46;100.00;101248.72;5064958;28;20036;-67
2023/08/08 07:33:44;;;;;;;20.08;6.05;;;;;;;15.47;100.00;101248.72;5062220;28;20076;-67
2023/08/08 07:36:09;;;;;;;19.30;5.78;;;;;;;15.51;100.00;101244.25;5065488;28;20029;-69
2023/08/08 07:38:34;;;;;;;19.13;5.75;;;;;;;15.65;100.00;101233.44;5061181;28;20436;-82
2023/08/08 07:41:00;;;;;;;18.90;5.28;;;;;;;15.79;100.00;101244.00;5064269;28;20036;-72
2023/08/08 07:43:26;;;;;;;18.88;5.45;;;;;;;15.89;100.00;101245.66;5063701;28;20038;-78
2023/08/08 07:45:51;;;;;;;18.63;5.00;;;;;;;15.96;100.00;101239.34;5063031;28;20495;-80
2023/08/08 07:48:17;;;;;;;18.30;5.32;;;;;;;15.96;100.00;101242.03;5064696;28;20033;-80
2023/08/08 07:50:42;;;;;;;19.35;5.22;;;;;;;16.06;100.00;101239.25;5061599;28;20029;-67
2023/08/08 07:53:08;;;;;;;18.48;5.15;;;;;;;16.19;100.00;101232.84;5065109;28;20033;-77
2023/08/08 07:55:33;;;;;;;19.15;4.90;;;;;;;16.47;100.00;101243.16;5062433;28;20037;-82
2023/08/08 07:57:58;;;;;;;18.85;4.80;;;;;;;16.74;100.00;101233.88;5063841;28;20044;-74
2023/08/08 08:00:24;;;;;;;19.23;5.10;;;;;;;16.62;100.00;101240.28;5063760;28;20024;-82
2023/08/08 08:02:49;;;;;;;20.70;4.88;;;;;;;16.54;100.00;101239.50;5062237;28;20029;-82
2023/08/08 08:05:15;;;;;;;17.60;4.90;;;;;;;16.61;100.00;101248.31;5064664;28;20055;-72
2023/08/08 08:07:41;;;;;;;17.63;5.45;;;;;;;16.47;100.00;101243.16;5061819;28;20036;-67
2023/08/08 08:10:09;;;;;;;19.08;5.50;;;;;;;16.39;100.00;101245.94;5064358;28;20036;-77
2023/08/08 08:12:35;;;;;;;21.15;5.32;;;;;;;16.44;100.00;101235.19;5061853;28;20163;-67
2023/08/08 08:15:01;;;;;;;19.67;5.40;;;;;;;16.45;100.00;101232.50;5063728;28;20113;-79
2023/08/08 08:17:27;;;;;;;19.00;5.38;;;;;;;16.48;100.00;101236.91;5062881;28;20116;-66
2023/08/08 08:19:53;;;;;;;19.60;5.20;;;;;;;16.68;100.00;101241.97;5062452;28;20064;-66
2023/08/08 08:22:19;;;;;;;19.83;5.43;;;;;;;16.86;100.00;101254.16;5064061;28;20016;-67
2023/08/08 08:24:45;;;;;;;18.83;5.30;;;;;;;16.90;100.00;101248.75;5060706;28;20021;-67
2023/08/08 08:27:12;;;;;;;18.85;5.05;;;;;;;16.95;100.00;101251.38;5064575;28;20097;-67
2023/08/08 08:29:37;;;;;;;17.80;4.90;;;;;;;17.01;100.00;101245.94;5061254;28;20064;-66
2023/08/08 08:32:02;;;;;;;20.08;5.53;;;;;;;16.86;100.00;101244.38;5063590;28;20446;-67
2023/08/08 08:34:28;;;;;;;17.73;5.10;;;;;;;16.62;100.00;101250.06;5062735;28;20032;-67
2023/08/08 08:36:53;;;;;;;17.90;5.15;;;;;;;16.42;100.00;101237.88;5062448;28;20116;-67
2023/08/08 08:39:19;;;;;;;16.83;5.05;;;;;;;16.53;100.00;101245.75;5063814;28;20041;-74
2023/08/08 08:41:48;;;;;;;18.73;5.50;;;;;;;16.51;100.00;101244.88;5061163;28;20067;-66
2023/08/08 08:44:16;;;;;;;18.80;5.28;;;;;;;16.65;100.00;101244.69;5064619;28;20388;-67
2023/08/08 08:46:42;;;;;;;18.38;5.20;;;;;;;16.82;100.00;101234.66;5057134;28;20087;-67
2023/08/08 08:49:09;;;;;;;18.45;4.97;;;;;;;17.03;100.00;101236.09;5063941;28;20116;-67
2023/08/08 08:51:36;;;;;;;18.05;4.50;;;;;;;17.11;100.00;101248.47;5061710;28;20479;-67
2023/08/08 08:54:02;;;;;;;15.73;4.20;;;;;;;17.10;100.00;101241.38;5063022;28;20040;-75
2023/08/08 08:56:27;;;;;;;15.88;3.88;;;;;;;17.20;100.00;101249.19;5062713;28;20025;-67
2023/08/08 08:58:52;;;;;;;13.90;3.67;;;;;;;17.05;100.00;101245.00;5060562;28;20032;-69
2023/08/08 09:01:18;;;;;;;16.02;3.70;;;;;;;16.82;100.00;101255.09;5063686;28;20024;-80
2023/08/08 09:03:44;;;;;;;15.73;4.07;;;;;;;16.81;100.00;101246.22;5060962;28;20029;-81
2023/08/08 09:06:11;;;;;;;13.32;3.65;;;;;;;16.82;100.00;101258.66;5056557;28;20591;-79
2023/08/08 09:08:36;;;;;;;15.07;3.60;;;;;;;16.86;100.00;101246.13;5063897;28;20383;-81
2023/08/08 09:11:02;;;;;;;15.85;3.90;;;;;;;16.93;100.00;101250.50;5061765;28;20086;-68
2023/08/08 09:13:34;;;;;;;16.00;3.75;;;;;;;17.01;100.00;101259.31;5062356;28;20044;-67
2023/08/08 09:15:59;;;;;;;;;;;;;;;17.10;100.00;101254.72;5062352;28;20028;-80
2023/08/08 09:18:25;;;;;;;15.95;3.80;;;;;;;16.96;100.00;101247.78;5062154;28;19917;-82
2023/08/08 09:20:50;;;;;;;15.27;4.03;;;;;;;17.03;100.00;101245.91;5061892;28;20040;-82
2023/08/08 09:23:16;;;;;;;13.88;3.70;;;;;;;17.07;100.00;101245.84;5060788;28;20086;-68
2023/08/08 09:25:41;;;;;;;12.15;3.75;;;;;;;16.93;100.00;101253.19;5063864;28;20045;-81
2023/08/08 09:28:07;;;;;;;13.93;3.70;;;;;;;16.86;100.00;101256.81;5060882;28;20041;-67
2023/08/08 09:30:33;;;;;;;16.48;3.92;;;;;;;16.90;100.00;101250.56;5062694;28;20033;-68
2023/08/08 09:33:00;;;;;;;13.80;3.80;;;;;;;16.88;100.00;101250.59;5062159;28;20028;-82
2023/08/08 09:35:29;;;;;;;16.15;3.95;;;;;;;16.88;100.00;101258.59;5061938;28;20052;-76
2023/08/08 09:37:55;;;;;;;15.88;3.92;;;;;;;17.13;100.00;101247.53;5065584;28;20024;-71
2023/08/08 09:40:21;;;;;;;14.65;3.78;;;;;;;17.53;100.00;101259.31;5065123;28;20032;-82
2023/08/08 09:42:48;;;;;;;14.52;3.80;;;;;;;18.37;100.00;101256.81;5067319;28;20024;-67
2023/08/08 09:45:14;;;;;;;15.75;4.05;;;;;;;18.73;100.00;101264.94;5064270;28;20025;-67
2023/08/08 09:47:39;;;;;;;12.38;3.38;;;;;;;19.05;100.00;101271.38;5067659;28;20143;-69
2023/08/08 09:50:06;;;;;;;14.18;3.70;;;;;;;19.38;100.00;101258.03;5064660;28;20453;-67
2023/08/08 09:52:33;;;;;;;16.10;3.80;;;;;;;18.78;100.00;101260.34;5066151;28;20063;-68
2023/08/08 09:54:59;;;;;;;16.85;4.10;;;;;;;18.58;100.00;101251.88;5065543;28;20505;-67
2023/08/08 09:57:25;;;;;;;14.18;3.88;;;;;;;18.89;100.00;101253.91;5065318;28;20083;-74
2023/08/08 09:59:52;;;;;;;16.17;4.03;;;;;;;19.09;100.00;101267.69;5066513;28;20021;-67
2023/08/08 10:02:17;;;;;;;12.73;3.72;;;;;;;18.85;100.00;101249.50;5064269;28;20087;-67
2023/08/08 10:04:45;;;;;;;13.50;3.60;;;;;;;19.40;100.00;101261.56;5067278;28;20029;-74
2023/08/08 10:07:10;;;;;;;13.82;3.70;;;;;;;19.65;100.00;101258.22;5059742;28;20025;-68
2023/08/08 10:09:37;;;;;;;13.23;3.60;;;;;;;19.89;100.00;101248.66;5066900;28;20473;-67
2023/08/08 10:12:04;;;;;;;13.13;3.53;;;;;;;20.27;100.00;101243.09;5064658;28;20024;-72
2023/08/08 10:14:31;;;;;;;11.18;3.45;;;;;;;20.14;100.00;101248.84;5065545;28;20141;-67
2023/08/08 10:16:56;;;;;;;12.98;3.10;;;;;;;20.55;100.00;101248.53;5065645;28;20085;-67
2023/08/08 10:19:23;;;;;;;11.07;2.72;;;;;;;21.34;100.00;101254.94;5064384;28;20104;-67
2023/08/08 10:21:55;;;;;;;13.57;3.13;;;;;;;21.56;100.00;101255.09;5066425;28;20035;-67
2023/08/08 10:24:21;;;;;;;13.75;3.10;;;;;;;22.14;100.00;101259.31;5064275;28;20033;-68
2023/08/08 10:27:01;;;;;;;13.93;3.42;;;;;;;21.06;100.00;101265.75;5066445;28;20053;-74
2023/08/08 10:29:28;;;;;;;12.95;3.40;;;;;;;19.84;100.00;101256.81;5065024;28;20454;-68
2023/08/08 10:32:03;;;;;;;12.20;3.50;;;;;;;19.37;100.00;101261.66;5065563;28;20052;-75
2023/08/08 10:34:42;;;;;;;13.00;3.10;;;;;;;19.94;100.00;101253.91;5065103;28;20525;-71
2023/08/08 10:37:15;;;;;;;14.23;3.40;;;;;;;20.64;100.00;101258.09;5063779;28;20029;-68
2023/08/08 10:40:11;;;;;;;13.93;3.33;;;;;;;21.73;100.00;101261.72;5066494;28;20029;-67
2023/08/08 10:42:44;;;;;;;11.15;3.15;;;;;;;21.48;100.00;101257.16;5049348;28;20511;-67
2023/08/08 10:45:14;;;;;;;14.32;3.55;;;;;;;20.27;100.00;101253.84;5066227;28;20029;-67
2023/08/08 10:47:41;;;;;;;14.00;3.50;;;;;;;19.35;100.00;101260.78;5062900;28;20388;-67
2023/08/08 10:50:11;;;;;;;14.93;3.85;;;;;;;18.82;100.00;101254.00;5065795;28;20037;-67
2023/08/08 10:52:52;;;;;;;14.30;3.58;;;;;;;17.73;100.00;101275.00;5063619;28;20044;-71
2023/08/08 10:55:31;;;;;;;13.75;3.60;;;;;;;17.17;100.00;101259.03;5059725;28;20475;-67
2023/08/08 10:58:19;;;;;;;13.73;3.80;;;;;;;17.40;100.00;101240.84;5064986;28;20423;-68
2023/08/08 11:00:45;;;;;;;15.23;3.90;;;;;;;17.94;100.00;101247.88;5059286;28;20036;-67
2023/08/08 11:03:10;;;;;;;14.38;3.60;;;;;;;18.95;100.00;101251.06;5065947;28;20029;-67
2023/08/08 11:05:37;;;;;;;12.20;3.70;;;;;;;20.59;100.00;101241.25;5063697;28;20485;-75